createdAt,value
2019-02-07T00:00:21.021Z,-4.40
2019-02-07T00:02:49.611Z,-4.50
2019-02-07T00:05:18.209Z,-4.50
2019-02-07T00:07:46.724Z,-4.50
2019-02-07T00:10:20.215Z,-4.60
2019-02-07T00:12:48.870Z,-4.60
2019-02-07T00:15:18.113Z,-4.60
2019-02-07T00:17:46.744Z,-4.60
2019-02-07T00:20:19.763Z,-4.50
2019-02-07T00:22:48.346Z,-4.60
2019-02-07T00:25:16.946Z,-4.50
2019-02-07T00:27:45.538Z,-4.40
2019-02-07T00:30:17.509Z,-4.40
2019-02-07T00:32:46.183Z,-4.50
2019-02-07T00:35:15.153Z,-4.60
2019-02-07T00:37:43.759Z,-4.60
2019-02-07T00:40:22.502Z,-4.60
2019-02-07T00:42:51.275Z,-4.60
2019-02-07T00:45:20.383Z,-4.70
2019-02-07T00:47:49.255Z,-4.80
2019-02-07T00:50:18.818Z,-4.90
2019-02-07T00:52:47.498Z,-5.00
2019-02-07T00:55:18.058Z,-5.00
2019-02-07T00:57:46.734Z,-5.00
2019-02-07T01:00:21.002Z,-5.10
2019-02-07T01:02:49.659Z,-5.00
2019-02-07T01:05:19.290Z,-5.10
2019-02-07T01:07:47.895Z,-5.00
2019-02-07T01:10:21.946Z,-4.90
2019-02-07T01:12:50.484Z,-5.00
2019-02-07T01:15:19.598Z,-5.00
2019-02-07T01:17:48.173Z,-5.00
2019-02-07T01:20:17.376Z,-5.10
2019-02-07T01:22:46.440Z,-5.10
2019-02-07T01:25:18.119Z,-5.10
2019-02-07T01:27:46.897Z,-5.10
2019-02-07T01:30:18.191Z,-5.20
2019-02-07T01:32:46.725Z,-5.20
2019-02-07T01:35:15.306Z,-5.30
2019-02-07T01:37:43.900Z,-5.30
2019-02-07T01:40:17.573Z,-5.20
2019-02-07T01:42:46.777Z,-5.10
2019-02-07T01:45:23.803Z,-5.00
2019-02-07T01:47:52.681Z,-5.10
2019-02-07T01:50:23.782Z,-5.10
2019-02-07T01:52:53.042Z,-5.00
2019-02-07T01:55:21.646Z,-5.00
2019-02-07T01:57:50.302Z,-5.10
2019-02-07T02:00:20.286Z,-5.20
2019-02-07T02:02:49.068Z,-5.10
2019-02-07T02:05:19.346Z,-5.10
2019-02-07T02:07:50.299Z,-5.10
2019-02-07T02:10:21.529Z,-5.20
2019-02-07T02:12:50.202Z,-5.20
2019-02-07T02:15:24.483Z,-5.30
2019-02-07T02:17:51.379Z,-5.40
2019-02-07T02:20:22.308Z,-5.50
2019-02-07T02:22:51.475Z,-5.50
2019-02-07T02:25:20.455Z,-5.50
2019-02-07T02:27:49.050Z,-5.40
2019-02-07T02:30:23.440Z,-5.40
2019-02-07T02:32:52.330Z,-5.30
2019-02-07T02:35:21.270Z,-5.40
2019-02-07T02:37:49.801Z,-5.40
2019-02-07T02:40:18.394Z,-5.30
2019-02-07T02:42:47.072Z,-5.40
2019-02-07T02:45:21.058Z,-5.40
2019-02-07T02:47:50.444Z,-5.50
2019-02-07T02:50:20.264Z,-5.50
2019-02-07T02:52:48.926Z,-5.50
2019-02-07T02:55:28.002Z,-5.50
2019-02-07T02:57:56.542Z,-5.60
2019-02-07T03:00:26.782Z,-5.70
2019-02-07T03:03:14.098Z,-5.80
2019-02-07T03:06:02.597Z,-5.80
2019-02-07T03:08:35.498Z,-5.70
2019-02-07T03:11:11.875Z,-5.90
2019-02-07T03:13:47.758Z,-5.70
2019-02-07T03:16:27.047Z,-5.70
2019-02-07T03:19:05.923Z,-5.80
2019-02-07T03:21:45.208Z,-5.70
2019-02-07T03:24:15.441Z,-5.70
2019-02-07T03:26:48.343Z,-5.70
2019-02-07T03:29:18.816Z,-5.80
2019-02-07T03:32:04.208Z,-5.70
2019-02-07T03:34:50.880Z,-5.70
2019-02-07T03:37:24.276Z,-5.40
2019-02-07T03:39:54.415Z,-5.30
2019-02-07T03:42:27.720Z,-5.40
2019-02-07T03:45:07.016Z,-5.50
2019-02-07T03:47:39.600Z,-5.60
2019-02-07T03:50:18.477Z,-5.60
2019-02-07T03:53:05.002Z,-5.70
2019-02-07T03:55:47.065Z,-5.80
2019-02-07T03:58:17.244Z,-5.90
2019-02-07T04:00:53.208Z,-6.00
2019-02-07T04:03:23.390Z,-6.00
2019-02-07T04:06:02.419Z,-6.00
2019-02-07T04:08:50.982Z,-5.80
2019-02-07T04:11:37.607Z,-5.50
2019-02-07T04:14:23.274Z,-5.30
2019-02-07T04:16:53.698Z,-5.40
2019-02-07T04:19:32.875Z,-5.50
2019-02-07T04:22:14.829Z,-5.70
2019-02-07T04:24:57.134Z,-5.80
2019-02-07T04:27:32.886Z,-5.90
2019-02-07T04:30:06.096Z,-5.90
2019-02-07T04:32:51.678Z,-6.00
2019-02-07T04:35:21.855Z,-6.10
2019-02-07T04:37:52.018Z,-6.10
2019-02-07T04:40:31.943Z,-6.10
2019-02-07T04:43:02.117Z,-6.10
2019-02-07T04:45:50.498Z,-6.00
2019-02-07T04:48:28.167Z,-6.00
2019-02-07T04:51:01.303Z,-6.00
2019-02-07T04:53:47.994Z,-6.00
2019-02-07T04:56:27.255Z,-6.10
2019-02-07T04:59:06.358Z,-6.00
2019-02-07T05:01:36.632Z,-6.10
2019-02-07T05:04:07.203Z,-6.20
2019-02-07T05:06:40.231Z,-6.20
2019-02-07T05:09:27.222Z,-6.20
2019-02-07T05:11:57.318Z,-6.30
2019-02-07T05:14:27.422Z,-6.30
2019-02-07T05:17:03.443Z,-6.30
2019-02-07T05:19:48.995Z,-6.30
2019-02-07T05:22:19.146Z,-6.30
2019-02-07T05:25:06.554Z,-6.30
2019-02-07T05:27:37.087Z,-6.30
2019-02-07T05:30:23.643Z,-6.30
2019-02-07T05:32:53.819Z,-6.30
2019-02-07T05:35:24.009Z,-6.40
2019-02-07T05:37:54.470Z,-6.40
2019-02-07T05:40:41.125Z,-6.30
2019-02-07T05:43:13.650Z,-6.30
2019-02-07T05:45:46.883Z,-6.30
2019-02-07T05:48:32.699Z,-6.20
2019-02-07T05:51:02.857Z,-6.10
2019-02-07T05:53:35.846Z,-6.10
2019-02-07T05:56:06.277Z,-6.20
2019-02-07T05:58:39.518Z,-6.40
2019-02-07T06:01:09.759Z,-6.60
2019-02-07T06:03:49.202Z,-6.60
2019-02-07T06:06:28.514Z,-6.60
2019-02-07T06:08:59.113Z,-6.60
2019-02-07T06:11:38.258Z,-6.70
2019-02-07T06:14:20.266Z,-6.60
2019-02-07T06:17:02.316Z,-6.60
2019-02-07T06:19:41.503Z,-6.50
2019-02-07T06:22:14.459Z,-6.50
2019-02-07T06:24:44.614Z,-6.50
2019-02-07T06:27:17.763Z,-6.60
2019-02-07T06:29:53.904Z,-6.50
2019-02-07T06:32:42.315Z,-6.50
2019-02-07T06:35:28.775Z,-6.50
2019-02-07T06:38:15.435Z,-6.50
2019-02-07T06:40:54.575Z,-6.50
2019-02-07T06:43:30.997Z,-6.50
2019-02-07T06:46:16.079Z,-6.40
2019-02-07T06:48:46.167Z,-6.40
2019-02-07T06:51:19.195Z,-6.40
2019-02-07T06:54:04.314Z,-6.30
2019-02-07T06:56:52.891Z,-6.20
2019-02-07T06:59:39.506Z,-6.20
2019-02-07T07:02:15.452Z,-6.10
2019-02-07T07:04:54.989Z,-6.00
2019-02-07T07:07:27.840Z,-5.90
2019-02-07T07:10:14.246Z,-5.90
2019-02-07T07:12:44.435Z,-5.80
2019-02-07T07:15:20.509Z,-5.80
2019-02-07T07:17:56.238Z,-5.70
2019-02-07T07:20:26.326Z,-5.60
2019-02-07T07:23:12.961Z,-5.50
2019-02-07T07:25:43.422Z,-5.50
2019-02-07T07:28:30.092Z,-5.40
2019-02-07T07:31:15.209Z,-5.30
2019-02-07T07:33:49.038Z,-5.30
2019-02-07T07:36:19.123Z,-5.20
2019-02-07T07:38:52.050Z,-5.20
2019-02-07T07:41:30.905Z,-5.10
2019-02-07T07:44:17.511Z,-5.00
2019-02-07T07:47:06.122Z,-5.00
2019-02-07T07:49:42.327Z,-4.80
2019-02-07T07:52:13.147Z,-4.80
2019-02-07T07:54:58.586Z,-4.60
2019-02-07T07:57:44.005Z,-4.50
2019-02-07T08:00:19.091Z,-4.50
2019-02-07T08:02:55.530Z,-4.30
2019-02-07T08:05:31.405Z,-4.20
2019-02-07T08:08:18.054Z,-4.10
2019-02-07T08:10:54.113Z,-3.90
2019-02-07T08:13:40.522Z,-3.80
2019-02-07T08:16:16.667Z,-3.60
2019-02-07T08:18:46.766Z,-3.50
2019-02-07T08:21:33.034Z,-3.30
2019-02-07T08:24:15.229Z,-3.30
2019-02-07T08:26:45.318Z,-3.10
2019-02-07T08:29:18.589Z,-3.00
2019-02-07T08:31:54.825Z,-2.90
2019-02-07T08:34:37.132Z,-2.80
2019-02-07T08:37:22.527Z,-2.70
2019-02-07T08:39:52.759Z,-2.60
2019-02-07T08:42:39.454Z,-2.50
2019-02-07T08:45:14.717Z,-2.40
2019-02-07T08:47:44.895Z,-2.30
2019-02-07T08:50:24.301Z,-2.20
2019-02-07T08:52:53.210Z,-2.10
2019-02-07T08:55:39.531Z,-2.00
2019-02-07T08:58:09.698Z,-1.90
2019-02-07T09:00:39.874Z,-1.80
2019-02-07T09:03:10.174Z,-1.70
2019-02-07T09:05:55.551Z,-1.50
2019-02-07T09:08:37.951Z,-1.50
2019-02-07T09:11:26.405Z,-1.40
2019-02-07T09:14:11.483Z,-1.20
2019-02-07T09:16:44.142Z,-1.10
2019-02-07T09:19:26.738Z,-0.90
2019-02-07T09:22:05.615Z,-0.80
2019-02-07T09:24:41.594Z,-0.70
2019-02-07T09:27:27.915Z,-0.50
2019-02-07T09:30:14.466Z,-0.40
2019-02-07T09:33:00.946Z,-0.30
2019-02-07T09:35:33.739Z,-0.10
2019-02-07T09:38:06.758Z,0.00
2019-02-07T09:40:52.991Z,0.00
2019-02-07T09:43:25.456Z,0.10
2019-02-07T09:46:04.202Z,0.20
2019-02-07T09:48:34.363Z,0.30
2019-02-07T09:51:13.639Z,0.40
2019-02-07T09:53:49.861Z,0.50
2019-02-07T09:56:22.614Z,0.60
2019-02-07T09:58:55.478Z,0.70
2019-02-07T10:01:25.575Z,0.80
2019-02-07T10:03:58.131Z,0.90
2019-02-07T10:06:34.054Z,1.00
2019-02-07T10:09:19.418Z,1.10
2019-02-07T10:11:58.422Z,1.20
2019-02-07T10:14:44.970Z,1.30
2019-02-07T10:17:30.058Z,1.30
2019-02-07T10:20:00.236Z,1.40
2019-02-07T10:22:30.578Z,1.50
2019-02-07T10:25:06.298Z,1.60
2019-02-07T10:27:45.418Z,1.70
2019-02-07T10:30:29.880Z,1.80
2019-02-07T10:33:02.850Z,1.90
2019-02-07T10:35:32.946Z,2.00
2019-02-07T10:38:17.932Z,2.10
2019-02-07T10:40:51.163Z,2.20
2019-02-07T10:43:24.322Z,2.30
2019-02-07T10:45:55.258Z,2.40
2019-02-07T10:48:44.486Z,2.50
2019-02-07T10:51:22.227Z,2.60
2019-02-07T10:54:04.410Z,2.70
2019-02-07T10:56:40.362Z,2.80
2019-02-07T10:59:19.967Z,2.90
2019-02-07T11:02:05.587Z,2.90
2019-02-07T11:04:36.043Z,3.00
2019-02-07T11:07:06.370Z,3.00
2019-02-07T11:09:36.589Z,3.10
2019-02-07T11:12:15.826Z,3.10
2019-02-07T11:14:48.630Z,3.10
2019-02-07T11:17:21.326Z,3.30
2019-02-07T11:20:08.165Z,3.30
2019-02-07T11:22:44.314Z,3.40
2019-02-07T11:25:30.989Z,3.40
2019-02-07T11:28:10.286Z,3.60
2019-02-07T11:30:49.113Z,3.60
2019-02-07T11:33:22.149Z,3.70
2019-02-07T11:36:08.802Z,3.80
2019-02-07T11:38:41.682Z,3.90
2019-02-07T11:41:11.906Z,4.00
2019-02-07T11:43:47.893Z,4.00
2019-02-07T11:46:23.894Z,4.20
2019-02-07T11:49:10.315Z,4.30
2019-02-07T11:51:49.514Z,4.40
2019-02-07T11:54:25.402Z,4.50
2019-02-07T11:56:55.558Z,4.50
2019-02-07T11:59:25.652Z,4.60
2019-02-07T12:02:08.722Z,4.60
2019-02-07T12:04:46.114Z,4.70
2019-02-07T12:07:16.193Z,4.70
2019-02-07T12:09:52.875Z,4.80
2019-02-07T12:12:25.672Z,4.80
2019-02-07T12:14:55.817Z,4.90
2019-02-07T12:17:44.223Z,5.00
2019-02-07T12:20:17.671Z,5.00
2019-02-07T12:23:03.081Z,5.10
2019-02-07T12:25:48.532Z,5.20
2019-02-07T12:28:36.045Z,5.30
2019-02-07T12:31:23.858Z,5.30
2019-02-07T12:33:59.966Z,5.40
2019-02-07T12:36:31.163Z,5.30
2019-02-07T12:39:09.850Z,5.40
2019-02-07T12:41:51.738Z,5.40
2019-02-07T12:44:21.894Z,5.40
2019-02-07T12:46:52.395Z,5.40
2019-02-07T12:49:29.407Z,5.40
2019-02-07T12:52:11.847Z,5.40
2019-02-07T12:54:42.086Z,5.40
2019-02-07T12:57:15.041Z,5.40
2019-02-07T12:59:51.218Z,5.40
2019-02-07T13:02:33.702Z,5.50
2019-02-07T13:05:10.233Z,5.60
2019-02-07T13:07:43.232Z,5.60
2019-02-07T13:10:14.582Z,5.50
2019-02-07T13:12:44.687Z,5.50
2019-02-07T13:15:15.364Z,5.50
2019-02-07T13:17:48.436Z,5.40
2019-02-07T13:20:28.081Z,5.40
2019-02-07T13:23:14.660Z,5.20
2019-02-07T13:25:53.790Z,5.00
2019-02-07T13:28:40.574Z,5.10
2019-02-07T13:31:10.775Z,4.90
2019-02-07T13:33:57.601Z,4.80
2019-02-07T13:36:33.958Z,4.80
2019-02-07T13:39:09.967Z,4.80
2019-02-07T13:41:40.064Z,4.80
2019-02-07T13:44:19.295Z,4.90
2019-02-07T13:47:01.757Z,5.00
2019-02-07T13:49:52.086Z,5.00
2019-02-07T13:52:38.666Z,5.10
2019-02-07T13:55:29.867Z,5.20
2019-02-07T13:58:12.525Z,5.20
2019-02-07T14:00:45.774Z,5.20
2019-02-07T14:03:31.358Z,5.00
2019-02-07T14:06:01.821Z,5.00
2019-02-07T14:08:38.413Z,5.10
2019-02-07T14:11:03.870Z,5.10
2019-02-07T14:13:42.750Z,5.10
2019-02-07T14:16:18.789Z,5.10
2019-02-07T14:19:03.186Z,5.00
2019-02-07T14:21:35.419Z,5.00
2019-02-07T14:24:05.718Z,5.00
2019-02-07T14:26:53.860Z,4.90
2019-02-07T14:29:35.983Z,4.90
2019-02-07T14:32:09.086Z,4.80
2019-02-07T14:34:48.229Z,4.80
2019-02-07T14:37:18.403Z,4.70
2019-02-07T14:40:00.566Z,4.60
2019-02-07T14:42:39.343Z,4.50
2019-02-07T14:45:28.459Z,4.50
2019-02-07T14:47:56.993Z,4.40
2019-02-07T14:50:25.647Z,4.30
2019-02-07T14:52:54.260Z,4.20
2019-02-07T14:55:23.186Z,4.20
2019-02-07T14:57:51.776Z,4.20
2019-02-07T15:00:23.446Z,4.10
2019-02-07T15:02:51.974Z,4.00
2019-02-07T15:05:20.573Z,4.00
2019-02-07T15:07:49.018Z,3.90
2019-02-07T15:10:19.894Z,3.80
2019-02-07T15:12:49.165Z,3.70
2019-02-07T15:15:20.582Z,3.60
2019-02-07T15:17:49.234Z,3.60
2019-02-07T15:20:25.871Z,3.50
2019-02-07T15:22:48.165Z,3.40
2019-02-07T15:25:17.142Z,3.40
2019-02-07T15:27:45.654Z,3.30
2019-02-07T15:30:17.294Z,3.20
2019-02-07T15:32:45.971Z,3.10
2019-02-07T15:35:20.935Z,3.00
2019-02-07T15:37:49.547Z,2.90
2019-02-07T15:40:21.481Z,2.90
2019-02-07T15:42:49.991Z,2.80
2019-02-07T15:45:19.270Z,2.70
2019-02-07T15:47:47.859Z,2.60
2019-02-07T15:50:21.763Z,2.50
2019-02-07T15:52:52.130Z,2.40
2019-02-07T15:55:21.011Z,2.30
2019-02-07T15:57:49.542Z,2.20
2019-02-07T16:00:27.995Z,2.10
2019-02-07T16:02:58.229Z,2.10
2019-02-07T16:05:26.682Z,2.00
2019-02-07T16:07:55.299Z,1.90
2019-02-07T16:10:23.890Z,1.80
2019-02-07T16:12:52.355Z,1.70
2019-02-07T16:15:20.907Z,1.70
2019-02-07T16:17:49.438Z,1.60
2019-02-07T16:20:20.291Z,1.50
2019-02-07T16:22:48.994Z,1.50
2019-02-07T16:25:18.087Z,1.30
2019-02-07T16:27:46.698Z,1.20
2019-02-07T16:30:17.838Z,1.10
2019-02-07T16:32:46.286Z,1.00
2019-02-07T16:35:19.802Z,1.00
2019-02-07T16:37:48.949Z,0.90
2019-02-07T16:40:21.947Z,0.90
2019-02-07T16:42:50.632Z,0.80
2019-02-07T16:45:25.031Z,0.80
2019-02-07T16:47:53.638Z,0.80
2019-02-07T16:50:33.633Z,0.70
2019-02-07T16:53:02.273Z,0.60
2019-02-07T16:55:31.177Z,0.60
2019-02-07T16:57:59.746Z,0.50
2019-02-07T17:00:33.305Z,0.50
2019-02-07T17:03:01.965Z,0.40
2019-02-07T17:05:30.490Z,0.20
2019-02-07T17:07:59.025Z,0.20
2019-02-07T17:10:33.735Z,0.00
2019-02-07T17:13:02.318Z,0.00
2019-02-07T17:15:31.250Z,0.00
2019-02-07T17:17:59.709Z,-0.10
2019-02-07T17:20:30.902Z,-0.10
2019-02-07T17:22:59.684Z,-0.10
2019-02-07T17:25:30.648Z,-0.10
2019-02-07T17:27:59.298Z,-0.10
2019-02-07T17:30:28.514Z,-0.10
2019-02-07T17:32:57.053Z,0.00
2019-02-07T17:35:25.599Z,0.00
2019-02-07T17:37:54.262Z,-0.10
2019-02-07T17:40:24.431Z,-0.20
2019-02-07T17:42:53.114Z,-0.30
2019-02-07T17:45:27.506Z,-0.30
2019-02-07T17:47:56.262Z,-0.40
2019-02-07T17:50:30.458Z,-0.50
2019-02-07T17:52:59.342Z,-0.60
2019-02-07T17:55:28.019Z,-0.60
2019-02-07T17:57:56.533Z,-0.60
2019-02-07T18:00:47.933Z,-0.60
2019-02-07T18:03:16.432Z,-0.60
2019-02-07T18:05:44.971Z,-0.70
2019-02-07T18:08:13.413Z,-0.80
2019-02-07T18:10:42.027Z,-0.80
2019-02-07T18:13:10.786Z,-0.90
2019-02-07T18:15:39.244Z,-0.90
2019-02-07T18:18:08.052Z,-1.10
2019-02-07T18:20:36.647Z,-1.30
2019-02-07T18:23:05.186Z,-1.40
2019-02-07T18:25:33.794Z,-1.40
2019-02-07T18:28:02.713Z,-1.40
2019-02-07T18:30:31.265Z,-1.40
2019-02-07T18:32:59.722Z,-1.40
2019-02-07T18:35:28.331Z,-1.50
2019-02-07T18:37:56.917Z,-1.50
2019-02-07T18:40:30.022Z,-1.50
2019-02-07T18:42:58.737Z,-1.40
2019-02-07T18:45:27.577Z,-1.30
2019-02-07T18:47:56.192Z,-1.30
2019-02-07T18:50:32.930Z,-1.30
2019-02-07T18:53:01.613Z,-1.30
2019-02-07T18:55:30.530Z,-1.30
2019-02-07T18:57:59.502Z,-1.30
2019-02-07T19:00:38.589Z,-1.40
2019-02-07T19:03:08.581Z,-1.50
2019-02-07T19:05:37.269Z,-1.50
2019-02-07T19:08:06.640Z,-1.40
2019-02-07T19:10:35.313Z,-1.60
2019-02-07T19:13:04.490Z,-1.60
2019-02-07T19:15:39.239Z,-1.70
2019-02-07T19:18:07.790Z,-1.70
2019-02-07T19:20:36.395Z,-1.70
2019-02-07T19:23:06.069Z,-1.70
2019-02-07T19:25:34.675Z,-1.70
2019-02-07T19:28:03.810Z,-1.70
2019-02-07T19:30:33.791Z,-1.70
2019-02-07T19:33:02.382Z,-1.80
2019-02-07T19:35:31.042Z,-1.70
2019-02-07T19:37:59.664Z,-1.70
2019-02-07T19:40:28.572Z,-1.80
2019-02-07T19:42:57.597Z,-1.90
2019-02-07T19:45:27.269Z,-2.00
2019-02-07T19:47:55.878Z,-1.90
2019-02-07T19:50:29.218Z,-2.00
2019-02-07T19:52:57.850Z,-2.00
2019-02-07T19:55:33.817Z,-2.10
2019-02-07T19:58:02.338Z,-2.10
2019-02-07T20:00:35.089Z,-2.00
2019-02-07T20:03:03.614Z,-2.10
2019-02-07T20:05:32.162Z,-2.10
2019-02-07T20:08:00.765Z,-2.00
2019-02-07T20:10:30.058Z,-1.90
2019-02-07T20:12:59.424Z,-1.90
2019-02-07T20:15:36.562Z,-1.80
2019-02-07T20:18:07.547Z,-1.70
2019-02-07T20:20:36.224Z,-1.70
2019-02-07T20:23:05.086Z,-1.60
2019-02-07T20:25:33.686Z,-1.60
2019-02-07T20:28:02.546Z,-1.60
2019-02-07T20:30:33.091Z,-1.70
2019-02-07T20:33:01.770Z,-1.80
2019-02-07T20:35:30.449Z,-1.80
2019-02-07T20:37:59.122Z,-1.80
2019-02-07T20:40:29.187Z,-1.90
2019-02-07T20:42:57.740Z,-2.00
2019-02-07T20:45:26.524Z,-2.10
2019-02-07T20:47:55.213Z,-2.10
2019-02-07T20:50:27.810Z,-2.20
2019-02-07T20:52:57.792Z,-2.20
2019-02-07T20:55:27.262Z,-2.20
2019-02-07T20:57:56.426Z,-2.20
2019-02-07T21:00:34.001Z,-2.20
2019-02-07T21:03:02.678Z,-2.20
2019-02-07T21:05:32.257Z,-2.10
2019-02-07T21:08:00.927Z,-2.10
2019-02-07T21:10:32.562Z,-2.10
2019-02-07T21:13:01.231Z,-2.20
2019-02-07T21:15:29.904Z,-2.20
2019-02-07T21:17:58.586Z,-2.30
2019-02-07T21:20:29.170Z,-2.20
2019-02-07T21:22:58.546Z,-2.20
2019-02-07T21:25:42.076Z,-2.20
2019-02-07T21:28:11.638Z,-2.30
2019-02-07T21:30:40.307Z,-2.30
2019-02-07T21:33:08.911Z,-2.40
2019-02-07T21:35:37.576Z,-2.30
2019-02-07T21:38:06.858Z,-2.30
2019-02-07T21:40:35.521Z,-2.30
2019-02-07T21:43:05.130Z,-2.30
2019-02-07T21:45:34.127Z,-2.20
2019-02-07T21:48:02.934Z,-2.20
2019-02-07T21:50:32.507Z,-2.20
2019-02-07T21:53:01.192Z,-2.20
2019-02-07T21:55:32.034Z,-2.10
2019-02-07T21:58:00.637Z,-2.20
2019-02-07T22:00:34.801Z,-2.20
2019-02-07T22:03:04.157Z,-2.20
2019-02-07T22:05:32.701Z,-2.20
2019-02-07T22:08:01.223Z,-2.30
2019-02-07T22:10:30.030Z,-2.40
2019-02-07T22:12:58.557Z,-2.40
2019-02-07T22:15:28.027Z,-2.40
2019-02-07T22:17:56.633Z,-2.30
2019-02-07T22:20:29.446Z,-2.40
2019-02-07T22:22:58.625Z,-2.40
2019-02-07T22:25:27.211Z,-2.30
2019-02-07T22:27:56.090Z,-2.30
2019-02-07T22:30:33.045Z,-2.30
2019-02-07T22:33:01.924Z,-2.40
2019-02-07T22:35:30.868Z,-2.30
2019-02-07T22:37:59.446Z,-2.40
2019-02-07T22:40:28.312Z,-2.30
2019-02-07T22:42:56.898Z,-2.30
2019-02-07T22:45:26.677Z,-2.20
2019-02-07T22:47:55.269Z,-2.20
2019-02-07T22:50:31.098Z,-2.20
2019-02-07T22:53:01.337Z,-2.20
2019-02-07T22:55:30.006Z,-2.40
2019-02-07T22:57:58.611Z,-2.40
2019-02-07T23:00:40.300Z,-2.40
2019-02-07T23:03:17.098Z,-2.30
2019-02-07T23:05:45.700Z,-2.40
2019-02-07T23:08:14.795Z,-2.50
2019-02-07T23:10:44.266Z,-2.50
2019-02-07T23:13:12.917Z,-2.60
2019-02-07T23:15:41.441Z,-2.60
2019-02-07T23:18:10.461Z,-2.70
2019-02-07T23:20:38.985Z,-2.70
2019-02-07T23:23:09.413Z,-2.70
2019-02-07T23:25:38.294Z,-2.60
2019-02-07T23:28:07.605Z,-2.60
2019-02-07T23:30:36.204Z,-2.60
2019-02-07T23:33:06.482Z,-2.50
2019-02-07T23:35:35.122Z,-2.40
2019-02-07T23:38:04.123Z,-2.40
2019-02-07T23:40:32.652Z,-2.40
2019-02-07T23:43:01.414Z,-2.40
2019-02-07T23:45:30.028Z,-2.30
2019-02-07T23:47:58.625Z,-2.30
2019-02-07T23:50:27.162Z,-2.30
2019-02-07T23:52:55.757Z,-2.30
2019-02-07T23:55:24.368Z,-2.40
2019-02-07T23:57:53.039Z,-2.30
